createdAt,value
2023-05-07T00:03:02.487Z,100.00
2023-05-07T00:05:34.760Z,100.00
2023-05-07T00:08:24.716Z,100.00
2023-05-07T00:11:19.466Z,100.00
2023-05-07T00:14:05.491Z,100.00
2023-05-07T00:16:48.246Z,100.00
2023-05-07T00:28:08.538Z,100.00
2023-05-07T00:30:40.416Z,100.00
2023-05-07T00:36:03.413Z,100.00
2023-05-07T00:38:52.539Z,100.00
2023-05-07T00:41:32.964Z,100.00
2023-05-07T00:44:05.048Z,100.00
2023-05-07T00:46:52.016Z,100.00
2023-05-07T00:49:24.052Z,100.00
2023-05-07T00:52:01.560Z,100.00
2023-05-07T00:54:47.982Z,100.00
2023-05-07T00:57:21.632Z,100.00
2023-05-07T00:59:58.659Z,100.00
2023-05-07T01:02:33.765Z,100.00
2023-05-07T01:05:10.891Z,100.00
2023-05-07T01:07:48.145Z,100.00
2023-05-07T01:10:23.886Z,100.00
2023-05-07T01:12:57.868Z,100.00
2023-05-07T01:18:37.783Z,100.00
2023-05-07T01:21:13.011Z,100.00
2023-05-07T01:23:50.501Z,100.00
2023-05-07T01:26:23.951Z,100.00
2023-05-07T01:28:58.917Z,100.00
2023-05-07T01:31:34.113Z,100.00
2023-05-07T01:34:17.037Z,100.00
2023-05-07T01:36:53.541Z,100.00
2023-05-07T01:39:22.954Z,100.00
2023-05-07T01:41:52.972Z,100.00
2023-05-07T01:44:50.761Z,100.00
2023-05-07T01:47:28.526Z,100.00
2023-05-07T01:50:00.593Z,100.00
2023-05-07T01:52:30.917Z,100.00
2023-05-07T01:57:40.355Z,100.00
2023-05-07T02:00:13.265Z,100.00
2023-05-07T02:02:45.960Z,100.00
2023-05-07T02:05:26.985Z,100.00
2023-05-07T02:07:53.920Z,100.00
2023-05-07T02:10:26.180Z,100.00
2023-05-07T02:12:54.011Z,100.00
2023-05-07T02:15:30.363Z,100.00
2023-05-07T02:18:05.505Z,100.00
2023-05-07T02:20:34.921Z,100.00
2023-05-07T02:25:44.125Z,100.00
2023-05-07T02:28:16.255Z,100.00
2023-05-07T02:30:45.771Z,100.00
2023-05-07T02:33:19.949Z,100.00
2023-05-07T02:35:48.962Z,100.00
2023-05-07T02:38:17.978Z,100.00
2023-05-07T02:43:26.112Z,100.00
2023-05-07T02:46:14.999Z,100.00
2023-05-07T02:48:43.811Z,100.00
2023-05-07T02:51:20.983Z,100.00
2023-05-07T02:54:00.778Z,100.00
2023-05-07T02:56:37.741Z,100.00
2023-05-07T02:59:05.922Z,100.00
2023-05-07T03:01:32.973Z,100.00
2023-05-07T03:04:02.210Z,100.00
2023-05-07T03:06:32.942Z,100.00
2023-05-07T03:09:03.593Z,100.00
2023-05-07T03:11:40.763Z,100.00
2023-05-07T03:14:09.399Z,100.00
2023-05-07T03:16:44.019Z,100.00
2023-05-07T03:19:22.530Z,100.00
2023-05-07T03:21:54.029Z,100.00
2023-05-07T03:24:22.773Z,100.00
2023-05-07T03:26:51.782Z,100.00
2023-05-07T03:29:33.534Z,100.00
2023-05-07T03:34:48.970Z,100.00
2023-05-07T03:37:22.615Z,100.00
2023-05-07T03:40:01.024Z,100.00
2023-05-07T03:45:13.113Z,100.00
2023-05-07T03:47:53.950Z,100.00
2023-05-07T03:53:17.873Z,100.00
2023-05-07T03:55:58.874Z,100.00
2023-05-07T03:58:30.258Z,100.00
2023-05-07T04:01:22.244Z,100.00
2023-05-07T04:03:49.931Z,100.00
2023-05-07T04:06:24.133Z,100.00
2023-05-07T04:09:01.414Z,100.00
2023-05-07T04:17:48.806Z,100.00
2023-05-07T04:23:19.226Z,100.00
2023-05-07T04:25:54.653Z,100.00
2023-05-07T04:28:36.283Z,100.00
2023-05-07T04:31:13.016Z,100.00
2023-05-07T04:33:57.075Z,100.00
2023-05-07T04:36:26.503Z,100.00
2023-05-07T04:38:59.917Z,100.00
2023-05-07T04:41:39.770Z,100.00
2023-05-07T04:44:11.064Z,100.00
2023-05-07T04:46:47.656Z,100.00
2023-05-07T04:49:16.093Z,100.00
2023-05-07T04:51:53.553Z,100.00
2023-05-07T04:54:27.864Z,100.00
2023-05-07T04:57:02.376Z,100.00
2023-05-07T05:02:20.660Z,100.00
2023-05-07T05:05:04.729Z,100.00
2023-05-07T05:07:57.474Z,100.00
2023-05-07T05:10:31.097Z,100.00
2023-05-07T05:13:02.707Z,100.00
2023-05-07T05:15:35.934Z,100.00
2023-05-07T05:18:16.773Z,100.00
2023-05-07T05:20:59.933Z,100.00
2023-05-07T05:24:02.009Z,100.00
2023-05-07T05:26:41.179Z,100.00
2023-05-07T05:34:59.592Z,100.00
2023-05-07T05:37:39.657Z,100.00
2023-05-07T05:40:15.623Z,100.00
2023-05-07T05:42:47.556Z,100.00
2023-05-07T05:45:39.866Z,100.00
2023-05-07T05:48:13.717Z,100.00
2023-05-07T05:51:09.055Z,100.00
2023-05-07T05:56:34.213Z,100.00
2023-05-07T05:59:30.544Z,100.00
2023-05-07T06:05:10.938Z,100.00
2023-05-07T06:16:35.849Z,100.00
2023-05-07T06:19:16.376Z,100.00
2023-05-07T06:39:30.514Z,99.78
2023-05-07T06:42:06.260Z,100.00
2023-05-07T06:47:29.838Z,100.00
2023-05-07T06:50:09.442Z,99.88
2023-05-07T06:52:48.618Z,100.00
2023-05-07T06:55:30.877Z,100.00
2023-05-07T06:58:07.946Z,97.85
2023-05-07T07:00:51.466Z,95.87
2023-05-07T07:03:45.084Z,90.46
2023-05-07T07:06:14.595Z,86.48
2023-05-07T07:08:54.235Z,81.16
2023-05-07T07:14:21.980Z,78.24
2023-05-07T07:19:54.857Z,78.49
2023-05-07T07:22:27.615Z,79.29
2023-05-07T07:28:09.177Z,76.45
2023-05-07T07:47:57.981Z,69.20
2023-05-07T07:53:42.978Z,68.33
2023-05-07T07:56:17.796Z,69.07
2023-05-07T07:59:12.084Z,67.11
2023-05-07T08:04:37.888Z,68.82
2023-05-07T09:03:36.022Z,62.18
2023-05-07T09:24:34.519Z,62.91
2023-05-07T09:27:31.785Z,62.98
2023-05-07T09:30:47.161Z,60.62
2023-05-07T09:36:34.014Z,59.18
2023-05-07T09:47:54.983Z,58.45
2023-05-07T09:51:14.134Z,55.41
2023-05-07T10:10:56.963Z,52.70
2023-05-07T10:23:33.615Z,55.47
2023-05-07T10:30:35.427Z,55.19
2023-05-07T10:48:42.470Z,52.97
2023-05-07T11:25:22.676Z,49.02
2023-05-07T11:34:30.272Z,48.90
2023-05-07T11:40:24.901Z,45.56
2023-05-07T11:42:56.388Z,46.30
2023-05-07T11:45:53.322Z,44.42
2023-05-07T11:54:24.036Z,44.03
2023-05-07T12:20:28.323Z,40.29
2023-05-07T12:23:21.930Z,40.27
2023-05-07T12:25:56.482Z,40.24
2023-05-07T12:34:13.587Z,38.40
2023-05-07T12:39:33.340Z,38.76
2023-05-07T12:42:08.211Z,37.31
2023-05-07T13:09:57.710Z,39.12
2023-05-07T13:17:58.645Z,38.42
2023-05-07T13:20:36.900Z,37.50
2023-05-07T13:26:08.480Z,41.03
2023-05-07T13:28:57.557Z,43.06
2023-05-07T13:31:39.616Z,43.67
2023-05-07T13:45:36.011Z,44.60
2023-05-07T13:48:05.113Z,43.11
2023-05-07T13:53:35.360Z,43.37
2023-05-07T13:56:13.336Z,44.36
2023-05-07T13:59:06.400Z,43.72
2023-05-07T14:01:45.012Z,43.60
2023-05-07T14:06:59.545Z,42.40
2023-05-07T14:09:50.996Z,43.19
2023-05-07T14:12:28.042Z,42.36
2023-05-07T14:15:24.862Z,43.02
2023-05-07T14:18:02.212Z,42.79
2023-05-07T14:21:00.534Z,42.05
2023-05-07T14:26:15.802Z,41.78
2023-05-07T14:28:49.953Z,42.29
2023-05-07T14:31:34.757Z,43.09
2023-05-07T14:34:09.182Z,43.03
2023-05-07T14:36:37.053Z,42.88
2023-05-07T14:39:07.628Z,43.16
2023-05-07T14:41:36.854Z,42.68
2023-05-07T14:49:22.709Z,42.88
2023-05-07T14:51:50.414Z,42.24
2023-05-07T15:00:36.374Z,43.14
2023-05-07T15:03:11.180Z,43.02
2023-05-07T15:05:46.320Z,43.58
2023-05-07T15:10:59.182Z,42.77
2023-05-07T15:13:38.492Z,42.41
2023-05-07T15:25:41.676Z,43.21
2023-05-07T15:30:55.063Z,43.80
2023-05-07T15:36:08.238Z,44.45
2023-05-07T15:38:45.537Z,44.98
2023-05-07T15:41:40.259Z,45.10
2023-05-07T15:44:10.786Z,45.19
2023-05-07T15:46:39.989Z,44.50
2023-05-07T15:52:12.722Z,44.47
2023-05-07T15:54:45.467Z,44.49
2023-05-07T16:03:13.311Z,45.12
2023-05-07T16:05:54.908Z,45.24
2023-05-07T16:17:04.193Z,45.78
2023-05-07T16:19:36.733Z,45.34
2023-05-07T16:24:51.065Z,46.17
2023-05-07T16:27:36.907Z,46.15
2023-05-07T16:30:06.594Z,46.30
2023-05-07T16:32:48.847Z,46.20
2023-05-07T16:35:17.169Z,46.75
2023-05-07T16:38:15.272Z,46.71
2023-05-07T16:40:49.967Z,46.76
2023-05-07T16:43:20.131Z,47.09
2023-05-07T16:45:49.662Z,46.82
2023-05-07T16:48:42.886Z,46.88
2023-05-07T16:56:57.704Z,47.38
2023-05-07T16:59:33.213Z,47.60
2023-05-07T17:02:05.298Z,47.95
2023-05-07T17:07:29.578Z,74.62
2023-05-07T17:10:14.317Z,83.29
2023-05-07T17:12:44.435Z,88.42
2023-05-07T17:18:29.006Z,93.86
2023-05-07T17:21:31.160Z,98.24
2023-05-07T17:26:51.593Z,100.00
2023-05-07T17:29:25.809Z,100.00
2023-05-07T17:32:18.490Z,100.00
2023-05-07T17:37:32.882Z,100.00
2023-05-07T17:42:56.258Z,100.00
2023-05-07T17:45:34.688Z,100.00
2023-05-07T17:48:18.397Z,100.00
2023-05-07T17:50:48.805Z,100.00
2023-05-07T17:53:17.863Z,100.00
2023-05-07T17:55:45.341Z,100.00
2023-05-07T18:04:17.978Z,100.00
2023-05-07T18:06:46.462Z,100.00
2023-05-07T18:09:47.229Z,100.00
2023-05-07T18:12:18.582Z,100.00
2023-05-07T18:14:51.360Z,100.00
2023-05-07T18:17:31.079Z,100.00
2023-05-07T18:20:17.713Z,100.00
2023-05-07T18:25:48.761Z,100.00
2023-05-07T18:28:21.936Z,100.00
2023-05-07T18:33:46.840Z,100.00
2023-05-07T18:36:30.471Z,100.00
2023-05-07T18:38:58.946Z,100.00
2023-05-07T18:41:35.493Z,100.00
2023-05-07T18:46:52.418Z,100.00
2023-05-07T18:49:20.791Z,100.00
2023-05-07T18:51:54.905Z,100.00
2023-05-07T18:59:45.407Z,100.00
2023-05-07T19:22:33.414Z,100.00
2023-05-07T19:25:14.886Z,100.00
2023-05-07T19:34:07.276Z,100.00
2023-05-07T19:42:28.170Z,100.00
2023-05-07T20:03:22.811Z,100.00
2023-05-07T20:08:51.845Z,100.00
2023-05-07T20:14:08.087Z,100.00
2023-05-07T20:19:35.844Z,100.00
2023-05-07T20:28:37.658Z,100.00
2023-05-07T20:34:12.933Z,100.00
2023-05-07T20:36:41.308Z,100.00
2023-05-07T20:39:17.983Z,100.00
2023-05-07T20:52:49.725Z,100.00
2023-05-07T20:55:19.465Z,100.00
2023-05-07T20:57:47.578Z,100.00
2023-05-07T21:03:39.603Z,100.00
2023-05-07T21:06:08.095Z,100.00
2023-05-07T21:08:35.274Z,100.00
2023-05-07T21:11:06.236Z,100.00
2023-05-07T21:13:33.987Z,100.00
2023-05-07T21:16:05.414Z,100.00
2023-05-07T21:18:47.126Z,100.00
2023-05-07T21:21:19.058Z,100.00
2023-05-07T21:23:47.973Z,100.00
2023-05-07T21:26:34.816Z,100.00
2023-05-07T21:29:01.403Z,100.00
2023-05-07T21:34:14.410Z,100.00
2023-05-07T21:42:11.503Z,100.00
2023-05-07T21:44:58.415Z,100.00
2023-05-07T21:50:09.776Z,100.00
2023-05-07T21:52:36.624Z,100.00
2023-05-07T21:55:05.591Z,100.00
2023-05-07T21:57:38.251Z,100.00
2023-05-07T22:00:06.967Z,100.00
2023-05-07T22:02:33.789Z,100.00
2023-05-07T22:05:00.606Z,100.00
2023-05-07T22:07:31.175Z,100.00
2023-05-07T22:09:59.513Z,100.00
2023-05-07T22:12:26.376Z,100.00
2023-05-07T22:14:53.570Z,100.00
2023-05-07T22:17:23.773Z,100.00
2023-05-07T22:19:51.985Z,100.00
2023-05-07T22:22:19.477Z,100.00
2023-05-07T22:24:47.243Z,100.00
2023-05-07T22:27:15.118Z,100.00
2023-05-07T22:29:41.811Z,100.00
2023-05-07T22:32:11.866Z,100.00
2023-05-07T22:34:44.016Z,100.00
2023-05-07T22:37:10.894Z,100.00
2023-05-07T22:39:37.521Z,100.00
2023-05-07T22:42:04.578Z,100.00
2023-05-07T22:44:31.736Z,100.00
2023-05-07T22:46:58.519Z,100.00
2023-05-07T22:49:26.787Z,100.00
2023-05-07T22:51:57.111Z,100.00
2023-05-07T22:54:25.542Z,100.00
2023-05-07T22:56:53.931Z,100.00
2023-05-07T22:59:21.374Z,100.00
2023-05-07T23:01:53.985Z,100.00
2023-05-07T23:04:21.487Z,100.00
2023-05-07T23:06:56.512Z,100.00
2023-05-07T23:09:23.157Z,100.00
2023-05-07T23:11:50.068Z,100.00
2023-05-07T23:14:17.527Z,100.00
2023-05-07T23:16:45.538Z,100.00
2023-05-07T23:19:13.664Z,100.00
2023-05-07T23:21:42.192Z,100.00
2023-05-07T23:24:09.014Z,100.00
2023-05-07T23:26:42.174Z,100.00
2023-05-07T23:29:12.598Z,100.00
2023-05-07T23:31:44.266Z,100.00
2023-05-07T23:34:11.166Z,100.00
2023-05-07T23:36:38.232Z,100.00
2023-05-07T23:39:04.983Z,100.00
2023-05-07T23:41:33.857Z,100.00
2023-05-07T23:44:00.626Z,100.00
2023-05-07T23:46:28.452Z,100.00
2023-05-07T23:48:58.600Z,100.00
2023-05-07T23:51:25.868Z,100.00
2023-05-07T23:53:55.147Z,100.00
2023-05-07T23:56:22.873Z,100.00
2023-05-07T23:58:58.849Z,100.00
